Wright Patterson Air Force Base
KFFO : now visible

Airfield :











YOU CAN JOIN US ON...

 
LOGIN :

Register | Disclaimer

   EN    FR    IT 

 









Legend :    VFR   Marginal VFR   IFR   Intensive IFR   Very Intensive IFR
Visi :
Ceiling :
>= 8 km
>= 3000ft
5 to 8 km
1000 to 3000 ft
1500m to 5 km
500 to 1000 ft
800 to 1500m
200 to 500 ft
< 800m
< 200 ft
Symbols :   Thunderstorms  Fog  Heavy snow  Heavy precipitations  Wind > 20 kt






- Airport Elevation : 823 ft


KFFO - Wright Patterson Air Force Base

CURRENT METAR :
  • 171356Z AUTO 00000KT 7SM CLR M02/M05 A3011 RMK AO2 SLP208 T10161055

EXPIRED METARs :
  • 171256Z AUTO 00000KT 7SM CLR M05/M07 A3012 RMK AO2 SLP213 T10511074
  • 171156Z AUTO 00000KT 10SM CLR M05/M07 A3013 RMK AO2 SLP216 T10531073 11016 21054 57008

TAF TAF KFFO
Valid from the 17 at 11:00 until the 18 at 17:00 UTC


171100Z 1711/1817 VRB06KT 9999 SKC QNH2978INS
BECMG 1718/1719 VRB06KT 9999 BKN090 QNH2978INS
BECMG 1806/1807 VRB06KT 9999 FEW014 SCT130 QNH2974INS TX07/1720Z TNM05/1712Z



MET'MAP, your aeronautical weather chart ! - Copyright ORBIFLY December 2007 - Disclaimer

ORBIFLY MET'MAP TEAM :

Programming & Development : Alexandra Zaïnal
Concept & Development : Baudouin d'Aumeries
Co-Development & Prog : Marc-Olivier Méhu
Technical & hardware support : Manuel Goepfert

Contact : metmap@orbifly.com




SOURCES & CREDITS :

   NOAA       Earth
Advisory